Hartley Bay, Canada
Current Conditions -  °F | °C
As of 12:41 PM on Sunday 21 Dec 2014 (Local Time) from CYXT Reporting Station
Haze Haze  
Wind Chill: 34°   Ceiling: 200
Heat Index: 34°   Visibility: 1mi
Dew Point: 34°   Wind: 3mph
Humidity: 100%   Direction: 300°WNW
Pressure: 29.58"   Gusts: NA
Location:  53.43°N, 129.27°W
Report Text: CYXT 212041Z 30003KT 1SM BR OVC002 01/01 A2958 RMK FG2ST6 VIS VRB 3/4-11/4 SLP027
Loading
Personal Weather Stations






























Interactive Weather Map New forecast layout! Learn more

10-Day Weather Forecast

Advertisements
Track Severe Weather on mobile